Time;durP1;ratioP1;P1;durP2;ratioP2;P2;SDS_P1;SDS_P2;PMS_P1;PMS_P2;Temp;Humidity;BMP_temperature;BMP_pressure;BME280_temperature;BME280_humidity;BME280_pressure;Samples;Min_cycle;Max_cycle;Signal;HPM_P1;HPM_P2
2023/10/20 00:01:49;;;;;;;1.80;1.65;;;21.10;99.90;;;;;;5062021;28;20267;-75
2023/10/20 00:04:16;;;;;;;0.10;0.10;;;21.10;99.90;;;;;;5079973;28;20348;-77
2023/10/20 00:06:41;;;;;;;0.10;0.10;;;21.00;99.90;;;;;;5079705;28;20059;-74
2023/10/20 00:09:08;;;;;;;0.10;0.10;;;21.00;99.90;;;;;;5079336;28;20043;-75
2023/10/20 00:11:34;;;;;;;0.68;0.68;;;21.00;99.90;;;;;;5079299;28;20047;-75
2023/10/20 00:14:00;;;;;;;0.47;0.47;;;21.10;99.90;;;;;;5061102;28;20063;-75
2023/10/20 00:16:29;;;;;;;0.10;0.10;;;21.10;99.90;;;;;;5079004;28;20630;-76
2023/10/20 00:19:01;;;;;;;1.55;1.55;;;21.00;99.90;;;;;;5079129;28;20043;-81
2023/10/20 00:21:27;;;;;;;0.10;0.10;;;21.00;99.90;;;;;;5079286;28;20483;-77
2023/10/20 00:23:52;;;;;;;0.10;0.10;;;21.00;99.90;;;;;;5059685;28;20521;-76
2023/10/20 00:26:19;;;;;;;0.10;0.10;;;21.10;99.90;;;;;;5078750;28;20025;-75
2023/10/20 00:28:44;;;;;;;0.10;0.10;;;21.00;99.90;;;;;;5060625;28;20039;-79
2023/10/20 00:31:11;;;;;;;0.10;0.10;;;21.20;99.90;;;;;;5078930;28;20284;-74
2023/10/20 00:33:39;;;;;;;0.10;0.10;;;21.20;99.90;;;;;;5079079;28;20556;-74
2023/10/20 00:36:06;;;;;;;0.10;0.10;;;21.30;99.90;;;;;;5078743;28;20024;-76
2023/10/20 00:38:31;;;;;;;0.57;0.57;;;21.30;99.90;;;;;;5078717;28;20023;-81
2023/10/20 00:40:57;;;;;;;0.15;0.15;;;21.20;99.90;;;;;;5078481;28;20047;-75
2023/10/20 00:43:35;;;;;;;0.75;0.75;;;21.20;99.90;;;;;;5078813;28;20028;-75
2023/10/20 00:46:01;;;;;;;6.82;2.15;;;21.20;99.90;;;;;;5078682;28;20052;-74
2023/10/20 00:48:27;;;;;;;0.10;0.10;;;21.30;99.90;;;;;;5079844;28;20031;-74
2023/10/20 00:50:53;;;;;;;0.10;0.10;;;21.60;99.90;;;;;;5079693;28;20387;-78
2023/10/20 00:53:19;;;;;;;2.75;2.65;;;21.40;99.90;;;;;;5079839;28;20092;-87
2023/10/20 00:55:45;;;;;;;0.10;0.10;;;21.20;99.90;;;;;;5079553;28;20020;-73
2023/10/20 00:58:11;;;;;;;0.43;0.43;;;23.30;99.90;;;;;;5078983;28;20588;-81
2023/10/20 01:00:37;;;;;;;0.10;0.10;;;21.10;99.90;;;;;;5079449;28;20020;-81
2023/10/20 01:03:04;;;;;;;0.10;0.10;;;21.10;99.90;;;;;;5079808;28;20021;-77
2023/10/20 01:05:30;;;;;;;1.58;1.42;;;21.20;99.90;;;;;;5080495;28;20081;-81
2023/10/20 01:07:56;;;;;;;0.10;0.10;;;21.20;99.90;;;;;;5064544;28;20028;-78
2023/10/20 01:10:22;;;;;;;0.10;0.10;;;21.80;99.90;;;;;;5063538;28;20048;-75
2023/10/20 01:12:47;;;;;;;0.10;0.10;;;21.30;99.90;;;;;;5080342;28;20300;-75
2023/10/20 01:15:15;;;;;;;0.10;0.10;;;21.20;99.90;;;;;;5079184;28;20028;-74
2023/10/20 01:17:41;;;;;;;0.10;0.10;;;21.30;99.90;;;;;;5061602;28;20090;-75
2023/10/20 01:20:09;;;;;;;0.17;0.17;;;21.20;99.90;;;;;;5078344;28;20338;-76
2023/10/20 01:22:34;;;;;;;0.38;0.32;;;21.30;99.90;;;;;;5078388;28;20036;-74
2023/10/20 01:25:01;;;;;;;0.30;0.30;;;21.30;99.90;;;;;;5077946;28;20052;-77
2023/10/20 01:27:27;;;;;;;2.83;1.38;;;;;;;;;;5078098;28;20124;-76
2023/10/20 01:29:52;;;;;;;0.10;0.10;;;21.20;99.90;;;;;;5078271;28;20070;-75
2023/10/20 01:32:18;;;;;;;0.10;0.10;;;21.20;99.90;;;;;;5077591;28;20055;-75
2023/10/20 01:34:44;;;;;;;0.30;0.30;;;21.10;99.90;;;;;;5077537;28;20063;-75
2023/10/20 01:37:14;;;;;;;0.10;0.10;;;20.80;99.90;;;;;;5077869;28;20311;-76
2023/10/20 01:39:41;;;;;;;0.10;0.10;;;21.00;99.90;;;;;;5079916;28;20012;-74
2023/10/20 01:42:08;;;;;;;0.10;0.10;;;21.00;99.90;;;;;;5077676;28;20042;-78
2023/10/20 01:44:34;;;;;;;3.45;2.22;;;21.00;99.90;;;;;;5059003;28;20088;-75
2023/10/20 01:46:59;;;;;;;0.10;0.10;;;21.00;99.90;;;;;;5077791;28;20020;-78
2023/10/20 01:49:25;;;;;;;6.70;4.78;;;20.90;99.90;;;;;;5078065;28;20057;-74
2023/10/20 01:51:51;;;;;;;1.08;1.08;;;20.90;99.90;;;;;;5077961;28;20452;-75
2023/10/20 01:54:17;;;;;;;0.20;0.20;;;21.10;99.90;;;;;;5059398;28;20245;-76
2023/10/20 01:56:43;;;;;;;0.10;0.10;;;20.90;99.90;;;;;;5078523;28;20509;-74
2023/10/20 01:59:10;;;;;;;0.10;0.10;;;21.20;99.90;;;;;;5077532;28;20426;-75
2023/10/20 02:01:36;;;;;;;1.60;1.50;;;21.20;99.90;;;;;;5077853;28;20103;-75
2023/10/20 02:04:01;;;;;;;0.20;0.20;;;21.10;99.90;;;;;;5077693;28;20161;-75
2023/10/20 02:06:27;;;;;;;0.10;0.10;;;21.10;99.90;;;;;;5077827;28;20024;-77
2023/10/20 02:08:53;;;;;;;0.10;0.10;;;21.10;99.90;;;;;;5077403;28;20051;-76
2023/10/20 02:11:19;;;;;;;0.20;0.20;;;21.10;99.90;;;;;;5077598;28;20653;-79
2023/10/20 02:13:45;;;;;;;0.20;0.20;;;21.10;99.90;;;;;;5077492;28;20028;-75
2023/10/20 02:16:11;;;;;;;0.40;0.40;;;21.00;99.90;;;;;;5077614;28;20068;-74
2023/10/20 02:18:38;;;;;;;1.75;1.65;;;21.00;99.90;;;;;;5077332;28;20028;-76
2023/10/20 02:21:04;;;;;;;0.65;0.65;;;21.00;99.90;;;;;;5077531;28;20059;-75
2023/10/20 02:23:34;;;;;;;0.10;0.10;;;21.10;99.90;;;;;;5077495;28;20380;-74
2023/10/20 02:26:08;;;;;;;2.05;1.27;;;21.00;99.90;;;;;;5058910;28;20016;-77
2023/10/20 02:28:35;;;;;;;0.10;0.10;;;21.10;99.90;;;;;;5077326;28;20309;-75
2023/10/20 02:31:01;;;;;;;0.10;0.10;;;21.20;99.90;;;;;;5077394;28;20035;-74
2023/10/20 02:33:28;;;;;;;0.17;0.17;;;21.10;99.90;;;;;;5077170;28;20044;-74
2023/10/20 02:35:54;;;;;;;1.02;1.02;;;21.10;99.90;;;;;;5077574;28;20358;-75
2023/10/20 02:38:20;;;;;;;0.10;0.10;;;21.10;99.90;;;;;;5077460;28;20115;-77
2023/10/20 02:40:53;;;;;;;0.10;0.10;;;21.10;99.90;;;;;;5077190;28;20533;-78
2023/10/20 02:43:22;;;;;;;0.75;0.75;;;21.00;99.90;;;;;;5069042;28;20054;-75
2023/10/20 02:45:54;;;;;;;0.10;0.10;;;21.10;99.90;;;;;;5077041;28;20093;-74
2023/10/20 02:48:24;;;;;;;0.10;0.10;;;21.10;99.90;;;;;;5080869;28;20609;-77
2023/10/20 02:50:50;;;;;;;0.10;0.10;;;21.20;99.90;;;;;;5080961;28;20024;-75
2023/10/20 02:53:17;;;;;;;0.10;0.10;;;21.20;99.90;;;;;;5080597;28;20016;-77
2023/10/20 02:55:44;;;;;;;3.20;2.92;;;21.10;99.90;;;;;;5080976;28;20544;-75
2023/10/20 02:58:11;;;;;;;0.20;0.20;;;21.20;99.90;;;;;;5080729;28;20252;-75
2023/10/20 03:00:49;;;;;;;0.10;0.10;;;21.20;99.90;;;;;;5080726;28;20051;-78
2023/10/20 03:03:15;;;;;;;0.10;0.10;;;21.10;99.90;;;;;;5080486;28;20083;-74
2023/10/20 03:05:45;;;;;;;0.88;0.82;;;21.00;99.90;;;;;;5080187;28;20537;-74
2023/10/20 03:08:11;;;;;;;0.10;0.10;;;20.90;99.90;;;;;;5080170;28;20020;-75
2023/10/20 03:10:38;;;;;;;0.10;0.10;;;21.10;99.90;;;;;;5080704;28;20020;-74
2023/10/20 03:13:04;;;;;;;0.10;0.10;;;21.20;99.90;;;;;;5062356;28;20518;-78
2023/10/20 03:15:31;;;;;;;0.10;0.10;;;21.20;99.90;;;;;;5080358;28;20019;-75
2023/10/20 03:17:58;;;;;;;1.15;1.15;;;21.30;99.90;;;;;;5080464;28;20028;-77
2023/10/20 03:20:28;;;;;;;0.10;0.10;;;21.30;99.90;;;;;;5080300;28;20056;-76
2023/10/20 03:22:54;;;;;;;0.10;0.10;;;21.30;99.90;;;;;;5061705;28;20043;-77
2023/10/20 03:25:20;;;;;;;0.10;0.10;;;21.40;99.90;;;;;;5080610;28;20024;-74
2023/10/20 03:27:47;;;;;;;0.10;0.10;;;21.30;99.90;;;;;;5080115;28;20402;-77
2023/10/20 03:30:15;;;;;;;2.00;1.85;;;21.40;99.90;;;;;;5061916;28;20064;-76
2023/10/20 03:32:40;;;;;;;0.10;0.10;;;21.30;99.90;;;;;;5080362;28;20040;-77
2023/10/20 03:35:07;;;;;;;0.70;0.70;;;21.30;99.90;;;;;;5080401;28;20430;-76
2023/10/20 03:37:34;;;;;;;1.15;1.10;;;21.20;99.90;;;;;;5080596;28;20039;-81
2023/10/20 03:40:00;;;;;;;1.70;1.65;;;21.30;99.90;;;;;;5080289;28;20040;-75
2023/10/20 03:42:27;;;;;;;0.10;0.10;;;21.40;99.90;;;;;;5079971;28;20620;-80
2023/10/20 03:44:53;;;;;;;0.10;0.10;;;21.30;99.90;;;;;;5079937;28;20630;-74
2023/10/20 03:47:21;;;;;;;0.10;0.10;;;21.20;99.90;;;;;;5080141;28;20044;-73
2023/10/20 03:49:49;;;;;;;0.10;0.10;;;21.30;99.90;;;;;;5080792;28;20268;-74
2023/10/20 03:52:15;;;;;;;0.10;0.10;;;21.20;99.90;;;;;;5080946;28;20012;-77
2023/10/20 03:54:41;;;;;;;3.58;3.33;;;21.10;99.90;;;;;;5081108;28;20020;-74
2023/10/20 03:57:07;;;;;;;0.10;0.10;;;21.00;99.90;;;;;;5080804;28;20058;-77
2023/10/20 03:59:32;;;;;;;0.10;0.10;;;21.00;99.90;;;;;;5082963;28;20533;-75
2023/10/20 04:01:58;;;;;;;0.10;0.10;;;20.90;99.90;;;;;;5080468;28;20111;-75
2023/10/20 04:04:24;;;;;;;0.10;0.10;;;21.00;99.90;;;;;;5080298;28;20035;-75
2023/10/20 04:06:50;;;;;;;0.10;0.10;;;21.00;99.90;;;;;;5080200;28;20095;-76
2023/10/20 04:09:17;;;;;;;0.10;0.10;;;20.90;99.90;;;;;;5079756;28;20399;-81
2023/10/20 04:11:44;;;;;;;0.10;0.10;;;21.00;99.90;;;;;;5061148;28;20024;-74
2023/10/20 04:14:10;;;;;;;0.20;0.20;;;20.90;99.90;;;;;;5079393;28;20418;-74
2023/10/20 04:16:41;;;;;;;0.20;0.20;;;21.00;99.90;;;;;;5080163;28;20012;-74
2023/10/20 04:19:10;;;;;;;0.10;0.10;;;21.00;99.90;;;;;;5081717;28;20032;-85
2023/10/20 04:21:38;;;;;;;0.10;0.10;;;21.00;99.90;;;;;;5080636;28;20016;-75
2023/10/20 04:24:07;;;;;;;0.25;0.25;;;20.80;99.90;;;;;;5079547;28;20027;-75
2023/10/20 04:26:35;;;;;;;0.10;0.10;;;21.00;99.90;;;;;;5078971;28;20012;-75
2023/10/20 04:50:48;;;;;;;0.10;0.10;;;21.10;99.90;;;;;;5078760;28;20058;-75
2023/10/20 05:01:04;;;;;;;0.10;0.10;;;21.10;99.90;;;;;;4995630;28;20516;-81
2023/10/20 05:03:45;;;;;;;0.10;0.10;;;21.00;99.90;;;;;;4979756;28;20390;-81
2023/10/20 05:06:41;;;;;;;0.10;0.10;;;21.10;99.90;;;;;;4979443;28;20022;-76
2023/10/20 05:09:02;;;;;;;0.17;0.17;;;21.20;99.90;;;;;;4995192;28;20456;-75
2023/10/20 05:11:28;;;;;;;4.07;3.85;;;21.10;99.90;;;;;;4995141;28;20030;-75
2023/10/20 05:13:54;;;;;;;0.20;0.20;;;21.00;99.90;;;;;;4979098;28;20345;-75
2023/10/20 05:16:21;;;;;;;0.10;0.10;;;21.10;99.90;;;;;;4995516;28;20045;-75
2023/10/20 05:18:47;;;;;;;0.45;0.45;;;21.20;99.90;;;;;;4995210;28;20069;-74
2023/10/20 05:21:13;;;;;;;0.10;0.10;;;21.10;99.90;;;;;;4995399;28;20103;-79
2023/10/20 05:23:40;;;;;;;0.10;0.10;;;21.20;99.90;;;;;;4995224;28;20041;-79
2023/10/20 05:26:09;;;;;;;0.65;0.65;;;19.30;99.90;;;;;;4994814;28;20111;-75
2023/10/20 05:28:35;;;;;;;0.20;0.20;;;21.20;99.90;;;;;;4995465;28;20550;-75
2023/10/20 05:31:01;;;;;;;0.63;0.63;;;21.60;99.90;;;;;;4995764;28;20049;-75
2023/10/20 05:33:27;;;;;;;1.85;1.48;;;21.20;99.90;;;;;;4978238;28;20050;-77
2023/10/20 05:35:53;;;;;;;0.10;0.10;;;21.10;99.90;;;;;;4978978;28;20049;-76
2023/10/20 05:38:19;;;;;;;0.10;0.10;;;21.10;99.90;;;;;;5062261;28;20074;-78
2023/10/20 05:40:55;;;;;;;2.72;2.53;;;21.10;99.90;;;;;;5077766;28;20013;-81
2023/10/20 05:43:20;;;;;;;1.38;1.27;;;21.10;99.90;;;;;;5077897;28;20047;-75
2023/10/20 05:45:46;;;;;;;0.10;0.10;;;21.10;99.90;;;;;;5078230;28;20520;-75
2023/10/20 05:48:12;;;;;;;3.40;3.20;;;21.10;99.90;;;;;;5077946;28;20281;-76
2023/10/20 05:50:38;;;;;;;0.30;0.30;;;21.20;99.90;;;;;;5077365;28;20234;-75
2023/10/20 05:53:05;;;;;;;0.10;0.10;;;21.20;99.90;;;;;;5077434;28;20528;-75
2023/10/20 05:55:32;;;;;;;0.10;0.10;;;21.30;99.90;;;;;;5077368;28;20378;-75
2023/10/20 05:57:58;;;;;;;0.57;0.57;;;21.30;99.90;;;;;;5077080;28;20189;-74
2023/10/20 06:00:24;;;;;;;0.10;0.10;;;21.40;99.90;;;;;;5077154;28;20103;-75
2023/10/20 06:02:50;;;;;;;1.45;1.35;;;21.40;99.90;;;;;;5077174;28;20024;-76
2023/10/20 06:05:16;;;;;;;0.10;0.10;;;21.40;99.90;;;;;;5077513;28;20031;-76
2023/10/20 06:07:43;;;;;;;1.27;1.02;;;21.40;99.90;;;;;;5077304;28;20012;-75
2023/10/20 06:10:11;;;;;;;1.23;1.23;;;21.30;99.90;;;;;;5077034;28;20093;-74
2023/10/20 06:12:38;;;;;;;2.17;1.95;;;21.40;99.90;;;;;;5076359;28;20551;-74
2023/10/20 06:15:08;;;;;;;2.13;0.52;;;21.50;99.90;;;;;;5076842;28;20024;-75
2023/10/20 06:17:35;;;;;;;0.10;0.10;;;21.50;99.90;;;;;;5076965;28;20121;-75
2023/10/20 06:20:06;;;;;;;11.95;11.38;;;21.50;99.90;;;;;;5076770;28;20482;-76
2023/10/20 06:22:32;;;;;;;0.10;0.10;;;21.60;99.90;;;;;;5079899;28;20150;-75
2023/10/20 06:24:59;;;;;;;0.32;0.32;;;22.20;99.90;;;;;;5080807;28;20482;-74
2023/10/20 06:27:25;;;;;;;0.25;0.25;;;;;;;;;;5080898;28;20035;-79
2023/10/20 06:35:43;;;;;;;0.10;0.10;;;21.70;99.90;;;;;;5038039;28;20047;-77
2023/10/20 06:40:35;;;;;;;0.10;0.10;;;21.70;99.90;;;;;;5037786;28;20116;-74
2023/10/20 06:43:01;;;;;;;0.73;0.73;;;21.80;99.90;;;;;;5038301;28;20103;-84
2023/10/20 06:45:26;;;;;;;0.20;0.20;;;21.80;99.90;;;;;;5038846;28;20491;-77
2023/10/20 06:47:52;;;;;;;0.10;0.10;;;21.80;99.90;;;;;;5021610;28;20084;-75
2023/10/20 06:50:18;;;;;;;0.10;0.10;;;21.80;99.90;;;;;;5037653;28;20567;-82
2023/10/20 06:52:44;;;;;;;4.03;3.72;;;21.60;99.90;;;;;;5020585;28;20025;-74
2023/10/20 06:55:09;;;;;;;0.63;0.63;;;21.90;99.90;;;;;;5037564;28;20040;-77
2023/10/20 06:57:35;;;;;;;0.10;0.10;;;21.90;99.90;;;;;;5036703;28;20041;-77
2023/10/20 07:00:03;;;;;;;0.10;0.10;;;21.90;99.90;;;;;;5037530;28;20820;-74
2023/10/20 07:02:29;;;;;;;0.10;0.10;;;22.00;99.90;;;;;;5037435;28;20040;-73
2023/10/20 07:04:56;;;;;;;0.10;0.10;;;22.00;99.90;;;;;;5020751;28;20029;-74
2023/10/20 07:07:21;;;;;;;0.20;0.20;;;22.10;99.90;;;;;;5020509;28;20250;-77
2023/10/20 07:09:47;;;;;;;0.10;0.10;;;22.10;99.90;;;;;;5059995;28;20313;-74
2023/10/20 07:12:15;;;;;;;0.10;0.10;;;19.10;99.90;;;;;;5062428;28;20111;-75
2023/10/20 07:14:43;;;;;;;0.10;0.10;;;22.20;99.90;;;;;;5080739;28;20016;-77
2023/10/20 07:17:09;;;;;;;4.10;1.38;;;22.20;99.90;;;;;;5062444;28;20028;-77
2023/10/20 07:19:35;;;;;;;1.00;1.00;;;22.30;99.90;;;;;;5079958;28;20035;-75
2023/10/20 07:22:05;;;;;;;0.28;0.28;;;22.30;99.90;;;;;;5080066;28;20087;-74
2023/10/20 07:24:31;;;;;;;0.10;0.10;;;22.40;99.90;;;;;;5080309;28;20032;-84
2023/10/20 07:26:57;;;;;;;0.13;0.13;;;22.30;99.90;;;;;;5079530;28;20024;-75
2023/10/20 07:29:24;;;;;;;0.10;0.10;;;22.50;99.90;;;;;;5080159;28;20032;-76
2023/10/20 07:31:51;;;;;;;3.38;1.58;;;22.60;99.90;;;;;;5079810;28;20449;-75
2023/10/20 07:34:17;;;;;;;0.10;0.10;;;22.60;99.90;;;;;;5079805;28;20024;-74
2023/10/20 07:36:45;;;;;;;0.10;0.10;;;22.70;99.90;;;;;;5079900;28;20328;-74
2023/10/20 07:39:16;;;;;;;0.10;0.10;;;22.80;99.90;;;;;;5079727;28;20055;-74
2023/10/20 07:41:45;;;;;;;0.10;0.10;;;22.80;99.90;;;;;;5079790;28;20012;-77
2023/10/20 07:44:15;;;;;;;0.15;0.15;;;22.80;99.90;;;;;;5079670;28;20024;-75
2023/10/20 07:46:42;;;;;;;0.10;0.10;;;22.90;99.90;;;;;;5079599;28;20434;-76
2023/10/20 07:49:11;;;;;;;0.15;0.15;;;22.90;99.90;;;;;;5061036;28;20077;-80
2023/10/20 07:51:40;;;;;;;0.10;0.10;;;22.90;99.90;;;;;;5079264;28;20301;-77
2023/10/20 07:54:09;;;;;;;0.50;0.50;;;23.00;99.90;;;;;;5080030;28;20016;-75
2023/10/20 07:56:36;;;;;;;0.10;0.10;;;22.90;99.90;;;;;;5079493;28;20444;-75
2023/10/20 07:59:03;;;;;;;0.10;0.10;;;21.00;99.90;;;;;;5079447;28;20216;-75
2023/10/20 08:01:29;;;;;;;0.15;0.15;;;22.90;99.90;;;;;;5079725;28;20674;-75
2023/10/20 08:03:55;;;;;;;0.10;0.10;;;23.10;99.90;;;;;;5080127;28;20024;-78
2023/10/20 08:06:22;;;;;;;0.63;0.38;;;23.00;99.90;;;;;;5082479;28;20494;-74
2023/10/20 08:08:48;;;;;;;0.47;0.47;;;23.10;99.90;;;;;;5082213;28;20020;-75
2023/10/20 08:11:13;;;;;;;0.10;0.10;;;22.40;99.90;;;;;;5081764;28;20104;-74
2023/10/20 08:13:39;;;;;;;0.17;0.17;;;23.20;99.90;;;;;;5081739;28;20115;-78
2023/10/20 08:16:09;;;;;;;0.10;0.10;;;23.00;99.90;;;;;;5080347;28;20383;-75
2023/10/20 08:18:35;;;;;;;0.20;0.20;;;23.10;99.90;;;;;;5080121;28;20039;-77
2023/10/20 08:21:09;;;;;;;2.50;1.08;;;23.10;99.90;;;;;;5079666;28;20027;-83
2023/10/20 08:23:37;;;;;;;0.10;0.10;;;23.10;99.90;;;;;;5079211;28;20035;-75
2023/10/20 08:26:04;;;;;;;0.10;0.10;;;23.10;99.90;;;;;;5078523;28;20012;-80
2023/10/20 08:28:29;;;;;;;1.27;1.27;;;23.20;99.90;;;;;;5078954;28;20698;-78
2023/10/20 08:31:17;;;;;;;0.10;0.10;;;24.40;99.90;;;;;;5078651;28;20306;-80
2023/10/20 08:33:43;;;;;;;0.10;0.10;;;23.20;99.90;;;;;;5040510;28;20241;-74
2023/10/20 08:36:12;;;;;;;0.10;0.10;;;23.10;99.90;;;;;;5058414;28;20017;-73
2023/10/20 08:38:40;;;;;;;0.25;0.25;;;24.20;99.90;;;;;;5058473;28;20056;-75
2023/10/20 08:41:13;;;;;;;0.10;0.10;;;23.20;99.90;;;;;;5058186;28;20017;-75
2023/10/20 08:43:41;;;;;;;0.10;0.10;;;23.30;99.90;;;;;;5040279;28;20175;-74
2023/10/20 08:46:10;;;;;;;0.15;0.15;;;23.50;99.90;;;;;;5058037;28;20017;-75
2023/10/20 08:48:40;;;;;;;0.03;0.03;;;23.60;99.90;;;;;;5058593;28;20494;-75
2023/10/20 08:51:07;;;;;;;0.05;0.05;;;23.70;99.90;;;;;;5058234;28;20051;-76
2023/10/20 08:53:37;;;;;;;0.50;0.50;;;23.50;99.90;;;;;;5059206;28;20009;-74
2023/10/20 08:56:05;;;;;;;0.10;0.10;;;23.70;99.90;;;;;;5058434;28;20203;-84
2023/10/20 08:58:31;;;;;;;0.10;0.10;;;23.70;99.90;;;;;;5040690;28;20036;-75
2023/10/20 09:00:57;;;;;;;4.90;3.40;;;23.30;99.90;;;;;;5058392;28;20563;-76
2023/10/20 09:03:26;;;;;;;0.47;0.47;;;23.80;99.90;;;;;;5058034;28;20625;-74
2023/10/20 09:06:11;;;;;;;0.10;0.10;;;23.60;99.90;;;;;;5040307;28;20028;-75
2023/10/20 09:08:38;;;;;;;0.10;0.10;;;24.00;99.50;;;;;;5058378;28;20071;-74
2023/10/20 09:11:11;;;;;;;0.10;0.10;;;24.00;99.90;;;;;;5057559;28;20209;-75
2023/10/20 09:13:40;;;;;;;0.10;0.10;;;23.80;99.80;;;;;;5057836;28;20020;-75
2023/10/20 09:16:07;;;;;;;0.20;0.20;;;23.80;99.90;;;;;;5057860;28;20045;-75
2023/10/20 09:18:47;;;;;;;0.03;0.03;;;23.90;99.50;;;;;;5039497;28;20028;-77
2023/10/20 09:21:18;;;;;;;0.15;0.15;;;23.80;99.90;;;;;;5058001;28;20310;-75
2023/10/20 09:23:58;;;;;;;0.10;0.10;;;23.80;99.50;;;;;;5058012;28;20429;-76
2023/10/20 09:26:27;;;;;;;0.80;0.80;;;23.80;99.60;;;;;;5057192;28;20297;-80
2023/10/20 09:28:54;;;;;;;0.50;0.50;;;23.80;99.70;;;;;;5057401;28;20028;-75
2023/10/20 09:31:21;;;;;;;0.10;0.10;;;23.50;99.40;;;;;;5057201;28;20586;-76
2023/10/20 09:33:47;;;;;;;0.10;0.10;;;23.70;99.90;;;;;;5077706;28;20058;-76
2023/10/20 09:36:14;;;;;;;0.10;0.10;;;23.70;99.20;;;;;;5077980;28;20502;-79
2023/10/20 09:38:44;;;;;;;0.10;0.10;;;26.30;99.90;;;;;;5077716;28;20111;-74
2023/10/20 09:41:15;;;;;;;0.10;0.10;;;23.60;99.30;;;;;;5077292;28;20096;-75
2023/10/20 09:43:48;;;;;;;0.22;0.22;;;23.80;99.30;;;;;;5077505;28;20081;-74
2023/10/20 09:46:19;;;;;;;0.73;0.73;;;23.60;99.50;;;;;;5077498;28;20229;-74
2023/10/20 09:48:49;;;;;;;0.15;0.15;;;23.70;99.00;;;;;;5077732;28;20089;-75
2023/10/20 09:51:16;;;;;;;8.48;1.08;;;23.80;99.20;;;;;;5059731;28;20332;-77
2023/10/20 09:53:43;;;;;;;0.15;0.15;;;23.70;99.30;;;;;;5077833;28;20016;-81
2023/10/20 09:56:10;;;;;;;1.00;1.00;;;23.90;99.40;;;;;;5077872;28;20235;-78
2023/10/20 09:58:40;;;;;;;0.30;0.30;;;23.90;99.00;;;;;;5077343;28;20093;-78
2023/10/20 10:01:06;;;;;;;0.20;0.20;;;23.90;98.40;;;;;;5077916;28;20072;-77
2023/10/20 10:03:39;;;;;;;4.38;3.03;;;22.00;98.40;;;;;;5077510;28;20070;-74
2023/10/20 10:06:10;;;;;;;;;;;23.80;99.00;;;;;;5077621;28;20027;-76
2023/10/20 10:08:41;;;;;;;0.00;0.00;;;23.80;99.00;;;;;;5059191;28;20279;-73
2023/10/20 10:11:26;;;;;;;0.30;0.30;;;24.00;98.70;;;;;;5077738;28;20016;-74
2023/10/20 10:13:59;;;;;;;0.28;0.28;;;24.00;98.90;;;;;;5077328;28;20478;-74
2023/10/20 10:16:25;;;;;;;0.10;0.10;;;24.00;97.90;;;;;;5077233;28;20043;-77
2023/10/20 10:18:54;;;;;;;0.10;0.10;;;24.00;98.40;;;;;;5077016;28;20046;-76
2023/10/20 10:21:25;;;;;;;0.10;0.10;;;22.50;97.80;;;;;;5077285;28;20020;-75
2023/10/20 10:24:18;;;;;;;0.10;0.10;;;24.10;98.40;;;;;;5058645;28;20225;-79
2023/10/20 10:26:57;;;;;;;0.10;0.10;;;21.00;97.70;;;;;;5077181;28;20044;-75
2023/10/20 10:29:50;;;;;;;0.85;0.38;;;24.10;98.40;;;;;;5077191;28;20043;-78
2023/10/20 10:32:18;;;;;;;0.10;0.10;;;24.00;97.70;;;;;;5076875;28;20070;-77
2023/10/20 10:34:45;;;;;;;8.77;7.88;;;24.00;97.80;;;;;;5078333;28;20027;-83
2023/10/20 10:37:12;;;;;;;0.20;0.20;;;22.50;97.50;;;;;;5077442;28;20466;-77
2023/10/20 10:39:38;;;;;;;0.10;0.10;;;24.00;97.90;;;;;;5077298;28;20034;-78
2023/10/20 10:42:05;;;;;;;0.38;0.38;;;24.00;97.80;;;;;;5076949;28;20289;-75
2023/10/20 10:44:36;;;;;;;0.10;0.10;;;24.00;98.40;;;;;;5077150;28;20016;-78
2023/10/20 10:47:04;;;;;;;0.10;0.10;;;24.00;97.60;;;;;;5077335;28;20016;-74
2023/10/20 10:49:33;;;;;;;0.10;0.10;;;24.10;97.70;;;;;;5058707;28;20382;-74
2023/10/20 10:52:07;;;;;;;13.05;1.45;;;24.10;97.90;;;;;;5076716;28;20020;-74
2023/10/20 10:54:33;;;;;;;0.10;0.10;;;23.30;97.40;;;;;;5076695;28;20039;-75
2023/10/20 10:57:03;;;;;;;0.32;0.32;;;24.20;96.90;;;;;;5058410;28;20512;-76
2023/10/20 10:59:30;;;;;;;0.20;0.20;;;24.20;97.20;;;;;;5058469;28;20048;-76
2023/10/20 11:01:57;;;;;;;0.10;0.10;;;24.20;97.40;;;;;;5058494;28;20012;-74
2023/10/20 11:04:23;;;;;;;0.10;0.10;;;24.10;97.50;;;;;;5058870;28;20112;-78
2023/10/20 11:06:50;;;;;;;0.10;0.10;;;24.20;96.80;;;;;;5076912;28;20224;-74
2023/10/20 11:09:20;;;;;;;0.20;0.20;;;24.20;97.00;;;;;;5062470;28;20036;-74
2023/10/20 11:11:48;;;;;;;0.38;0.38;;;24.20;97.00;;;;;;5080396;28;20027;-78
2023/10/20 11:14:18;;;;;;;0.47;0.47;;;24.20;96.20;;;;;;5080706;28;20044;-75
2023/10/20 11:16:45;;;;;;;1.52;1.48;;;24.20;97.00;;;;;;5061880;28;20646;-78
2023/10/20 11:19:14;;;;;;;0.13;0.13;;;24.30;96.60;;;;;;5080435;28;20032;-77
2023/10/20 11:21:51;;;;;;;0.10;0.10;;;24.30;96.20;;;;;;5080409;28;20052;-76
2023/10/20 11:24:34;;;;;;;0.10;0.10;;;24.30;96.60;;;;;;5062154;28;20398;-74
2023/10/20 11:27:05;;;;;;;0.10;0.10;;;24.30;96.40;;;;;;5079945;28;20067;-74
2023/10/20 11:29:32;;;;;;;0.25;0.25;;;24.30;96.40;;;;;;5080278;28;20324;-75
2023/10/20 11:32:06;;;;;;;0.10;0.10;;;24.40;96.20;;;;;;5079938;28;20040;-78
2023/10/20 11:34:32;;;;;;;0.10;0.10;;;24.50;96.00;;;;;;5080254;28;20016;-75
2023/10/20 11:36:59;;;;;;;0.52;0.52;;;24.50;96.20;;;;;;5081449;28;20191;-76
2023/10/20 11:39:27;;;;;;;6.10;5.68;;;24.40;95.70;;;;;;5081555;28;20491;-77
2023/10/20 11:41:53;;;;;;;0.10;0.10;;;22.80;95.10;;;;;;5082858;28;20084;-75
2023/10/20 11:44:21;;;;;;;0.10;0.10;;;24.40;95.80;;;;;;5081452;28;20035;-74
2023/10/20 11:46:47;;;;;;;2.08;1.63;;;24.40;95.40;;;;;;5063202;28;20070;-75
2023/10/20 11:49:13;;;;;;;0.32;0.32;;;24.40;95.90;;;;;;5080867;28;20099;-75
2023/10/20 11:51:40;;;;;;;0.20;0.20;;;24.40;95.40;;;;;;5080592;28;20526;-75
2023/10/20 11:54:06;;;;;;;1.17;1.17;;;24.40;95.40;;;;;;5080241;28;20537;-74
2023/10/20 11:56:32;;;;;;;0.10;0.10;;;24.40;95.80;;;;;;5081067;28;20036;-78
2023/10/20 11:58:58;;;;;;;0.55;0.55;;;24.50;96.00;;;;;;5080758;28;20087;-76
2023/10/20 12:01:25;;;;;;;0.20;0.20;;;24.40;96.30;;;;;;5080709;28;20111;-77
2023/10/20 12:03:50;;;;;;;0.10;0.10;;;24.40;95.70;;;;;;5079874;28;20027;-75
2023/10/20 12:06:16;;;;;;;0.10;0.10;;;23.20;95.20;;;;;;5079762;28;20016;-76
2023/10/20 12:08:43;;;;;;;0.10;0.10;;;24.50;95.50;;;;;;5079147;28;20028;-75
2023/10/20 12:11:09;;;;;;;0.00;0.00;;;24.60;95.00;;;;;;5079517;28;20027;-76
2023/10/20 12:13:36;;;;;;;0.10;0.10;;;24.50;95.20;;;;;;5060950;28;20032;-75
2023/10/20 12:16:05;;;;;;;0.10;0.10;;;24.40;95.10;;;;;;5079236;28;20386;-75
2023/10/20 12:18:31;;;;;;;0.10;0.10;;;24.50;95.10;;;;;;5079357;28;20040;-74
2023/10/20 12:20:57;;;;;;;0.10;0.10;;;24.60;95.50;;;;;;5078771;28;20024;-74
2023/10/20 12:23:22;;;;;;;0.10;0.10;;;27.20;96.30;;;;;;5079471;28;20509;-76
2023/10/20 12:25:48;;;;;;;4.13;3.92;;;24.70;95.20;;;;;;5079236;28;20020;-78
2023/10/20 12:28:14;;;;;;;0.10;0.10;;;24.70;94.70;;;;;;5079232;28;20233;-75
2023/10/20 12:30:40;;;;;;;0.10;0.10;;;24.70;95.10;;;;;;5079266;28;20020;-77
2023/10/20 12:33:05;;;;;;;0.00;0.00;;;24.50;96.00;;;;;;5078860;28;20113;-73
2023/10/20 12:35:32;;;;;;;3.00;2.08;;;24.50;94.90;;;;;;5078813;28;20031;-76
2023/10/20 12:37:57;;;;;;;0.10;0.10;;;24.40;94.70;;;;;;5078597;28;20047;-79
2023/10/20 12:40:25;;;;;;;0.10;0.10;;;24.40;95.00;;;;;;5060320;28;20020;-75
2023/10/20 12:42:51;;;;;;;0.30;0.30;;;24.40;95.30;;;;;;5060390;28;20111;-76
2023/10/20 12:45:17;;;;;;;4.90;3.50;;;24.50;95.00;;;;;;5078910;28;20023;-74
2023/10/20 12:47:43;;;;;;;0.47;0.47;;;24.60;94.30;;;;;;5078568;28;20024;-75
2023/10/20 12:50:09;;;;;;;0.65;0.65;;;24.60;94.30;;;;;;5078560;28;20095;-74
2023/10/20 12:52:36;;;;;;;0.10;0.10;;;24.50;94.40;;;;;;5078439;28;20032;-77
2023/10/20 12:55:05;;;;;;;0.10;0.10;;;24.50;94.60;;;;;;5078359;28;20562;-74
2023/10/20 12:57:31;;;;;;;0.45;0.28;;;24.80;94.70;;;;;;5078003;28;20567;-75
2023/10/20 12:59:57;;;;;;;0.10;0.10;;;24.50;94.50;;;;;;5078579;28;20028;-74
2023/10/20 13:02:23;;;;;;;1.38;1.27;;;24.50;94.60;;;;;;5078563;28;20551;-75
2023/10/20 13:04:49;;;;;;;0.17;0.17;;;24.60;94.40;;;;;;5059911;28;20066;-80
2023/10/20 13:07:14;;;;;;;1.75;1.00;;;24.60;94.70;;;;;;5078476;28;20089;-75
2023/10/20 13:09:40;;;;;;;0.10;0.10;;;24.60;94.50;;;;;;5060781;28;20245;-74
2023/10/20 13:12:07;;;;;;;0.10;0.10;;;24.50;94.50;;;;;;5079442;28;20024;-76
2023/10/20 13:14:34;;;;;;;0.10;0.10;;;24.50;94.50;;;;;;5079474;28;20019;-76
2023/10/20 13:17:00;;;;;;;0.05;0.05;;;24.50;94.70;;;;;;5079078;28;20016;-74
2023/10/20 13:19:26;;;;;;;0.10;0.10;;;24.60;94.70;;;;;;5082510;28;20394;-78
2023/10/20 13:21:52;;;;;;;0.10;0.10;;;24.40;95.80;;;;;;5080484;28;20072;-74
2023/10/20 13:24:18;;;;;;;0.10;0.10;;;24.60;95.00;;;;;;5080752;28;20020;-74
2023/10/20 13:26:44;;;;;;;0.10;0.10;;;24.50;94.80;;;;;;5079076;28;20102;-74
2023/10/20 13:29:10;;;;;;;0.10;0.10;;;24.70;94.50;;;;;;5079174;28;20138;-75